createdAt,value
2023-08-28T00:00:46.678Z,9.85
2023-08-28T00:03:14.756Z,8.35
2023-08-28T00:05:42.553Z,10.07
2023-08-28T00:08:19.804Z,9.65
2023-08-28T00:10:47.890Z,9.60
2023-08-28T00:13:15.699Z,9.05
2023-08-28T00:15:49.735Z,9.65
2023-08-28T00:18:17.531Z,8.73
2023-08-28T00:20:46.686Z,9.55
2023-08-28T00:23:22.704Z,9.65
2023-08-28T00:25:50.486Z,9.50
2023-08-28T00:28:18.275Z,8.27
2023-08-28T00:30:52.782Z,8.70
2023-08-28T00:33:20.604Z,9.65
2023-08-28T00:35:48.446Z,9.38
2023-08-28T00:38:23.825Z,10.38
2023-08-28T00:40:51.623Z,10.77
2023-08-28T00:43:19.482Z,10.63
2023-08-28T00:45:53.706Z,11.30
2023-08-28T00:48:23.005Z,10.77
2023-08-28T00:50:51.617Z,11.98
2023-08-28T00:53:27.804Z,10.75
2023-08-28T00:56:02.718Z,10.82
2023-08-28T00:58:43.712Z,10.65
2023-08-28T01:01:11.634Z,11.23
2023-08-28T01:03:39.535Z,12.18
2023-08-28T01:06:24.819Z,12.30
2023-08-28T01:09:04.407Z,12.15
2023-08-28T01:11:44.829Z,12.35
2023-08-28T01:14:21.271Z,11.90
2023-08-28T01:16:57.826Z,12.38
2023-08-28T01:19:33.898Z,12.50
2023-08-28T01:22:18.661Z,12.73
2023-08-28T01:24:52.231Z,12.55
2023-08-28T01:27:29.688Z,12.55
2023-08-28T01:30:11.770Z,13.02
2023-08-28T01:32:46.900Z,12.80
2023-08-28T01:35:16.626Z,13.90
2023-08-28T01:37:58.858Z,15.23
2023-08-28T01:40:32.120Z,14.60
2023-08-28T01:43:10.698Z,17.08
2023-08-28T01:45:39.929Z,15.98
2023-08-28T01:48:08.542Z,15.68
2023-08-28T01:50:42.832Z,15.52
2023-08-28T01:53:10.690Z,15.95
2023-08-28T01:56:36.677Z,15.60
2023-08-28T01:59:05.944Z,14.90
2023-08-28T02:01:33.726Z,15.40
2023-08-28T02:04:07.738Z,17.70
2023-08-28T02:06:35.630Z,15.57
2023-08-28T02:09:03.421Z,15.20
2023-08-28T02:11:37.888Z,14.73
2023-08-28T02:14:07.370Z,16.55
2023-08-28T02:16:45.909Z,16.23
2023-08-28T02:19:13.747Z,17.58
2023-08-28T02:21:41.678Z,18.35
2023-08-28T02:24:16.846Z,17.00
2023-08-28T02:26:44.640Z,17.42
2023-08-28T02:29:13.724Z,17.65
2023-08-28T02:31:47.884Z,17.52
2023-08-28T02:34:15.703Z,17.20
2023-08-28T02:36:43.477Z,17.20
2023-08-28T02:39:17.727Z,15.05
2023-08-28T02:41:45.533Z,15.68
2023-08-28T02:44:14.849Z,17.75
2023-08-28T02:46:48.826Z,16.55
2023-08-28T02:49:16.632Z,17.25
2023-08-28T02:51:44.415Z,19.17
2023-08-28T02:54:18.720Z,17.45
2023-08-28T02:57:06.741Z,18.35
2023-08-28T02:59:42.738Z,17.85
2023-08-28T03:02:10.982Z,15.35
2023-08-28T03:04:39.128Z,16.67
2023-08-28T03:07:13.970Z,16.35
2023-08-28T03:09:41.892Z,15.30
2023-08-28T03:12:10.129Z,16.80
2023-08-28T03:14:45.704Z,16.33
2023-08-28T03:17:14.987Z,15.93
2023-08-28T03:19:42.877Z,16.45
2023-08-28T03:22:16.724Z,16.83
2023-08-28T03:24:44.698Z,16.73
2023-08-28T03:27:12.507Z,18.05
2023-08-28T03:29:47.734Z,15.38
2023-08-28T03:32:15.706Z,14.95
2023-08-28T03:34:43.560Z,16.00
2023-08-28T03:37:17.992Z,13.07
2023-08-28T03:39:45.765Z,12.73
2023-08-28T03:42:13.546Z,13.02
2023-08-28T03:44:49.747Z,11.80
2023-08-28T03:47:17.603Z,11.20
2023-08-28T03:49:45.410Z,11.45
2023-08-28T03:52:19.732Z,10.57
2023-08-28T03:54:47.642Z,10.32
2023-08-28T03:57:28.801Z,10.73
2023-08-28T03:59:58.392Z,10.60
2023-08-28T04:02:26.352Z,9.10
2023-08-28T04:05:07.632Z,9.63
2023-08-28T04:07:36.451Z,8.45
2023-08-28T04:10:12.044Z,9.75
2023-08-28T04:12:40.335Z,9.05
2023-08-28T04:15:10.407Z,9.60
2023-08-28T04:17:44.847Z,9.23
2023-08-28T04:20:14.571Z,9.50
2023-08-28T04:22:43.081Z,9.90
2023-08-28T04:25:17.848Z,8.45
2023-08-28T04:27:45.634Z,8.98
2023-08-28T04:30:15.184Z,8.32
2023-08-28T04:32:49.931Z,8.10
2023-08-28T04:35:17.761Z,7.35
2023-08-28T04:37:45.640Z,7.55
2023-08-28T04:40:19.883Z,7.65
2023-08-28T04:42:47.682Z,7.65
2023-08-28T04:45:16.900Z,7.55
2023-08-28T04:47:51.809Z,8.30
2023-08-28T04:50:19.722Z,8.70
2023-08-28T04:52:47.533Z,9.02
2023-08-28T04:55:21.772Z,8.88
2023-08-28T04:57:55.826Z,8.43
2023-08-28T05:00:31.788Z,9.30
2023-08-28T05:02:59.688Z,9.50
2023-08-28T05:05:27.517Z,8.88
2023-08-28T05:08:01.883Z,9.55
2023-08-28T05:10:29.833Z,8.48
2023-08-28T05:12:57.669Z,7.85
2023-08-28T05:15:34.090Z,7.57
2023-08-28T05:18:01.983Z,7.63
2023-08-28T05:20:29.921Z,7.00
2023-08-28T05:23:05.111Z,5.68
2023-08-28T05:25:34.664Z,4.30
2023-08-28T05:28:02.845Z,3.90
2023-08-28T05:30:38.906Z,3.45
2023-08-28T05:33:07.100Z,3.22
2023-08-28T05:35:35.184Z,3.40
2023-08-28T05:38:09.792Z,2.58
2023-08-28T05:40:37.645Z,2.83
2023-08-28T05:43:06.063Z,2.65
2023-08-28T05:45:41.903Z,2.85
2023-08-28T05:48:09.801Z,2.55
2023-08-28T05:50:38.121Z,2.17
2023-08-28T05:53:12.897Z,2.30
2023-08-28T05:56:00.745Z,1.80
2023-08-28T05:58:36.114Z,2.10
2023-08-28T06:01:05.447Z,2.08
2023-08-28T06:03:33.321Z,2.35
2023-08-28T06:06:07.887Z,2.00
2023-08-28T06:08:35.673Z,1.95
2023-08-28T06:11:04.223Z,1.60
2023-08-28T06:13:38.848Z,1.73
2023-08-28T06:16:08.026Z,1.65
2023-08-28T06:18:35.846Z,1.30
2023-08-28T06:21:10.021Z,1.30
2023-08-28T06:23:37.812Z,1.20
2023-08-28T06:26:05.684Z,1.40
2023-08-28T06:28:39.910Z,1.75
2023-08-28T06:31:09.205Z,1.15
2023-08-28T06:33:37.011Z,1.15
2023-08-28T06:36:12.063Z,1.45
2023-08-28T06:38:39.927Z,1.38
2023-08-28T06:41:07.880Z,1.58
2023-08-28T06:43:41.863Z,1.30
2023-08-28T06:46:11.175Z,1.70
2023-08-28T06:48:38.984Z,1.50
2023-08-28T06:51:13.947Z,1.67
2023-08-28T06:53:41.839Z,1.58
2023-08-28T06:56:29.829Z,1.40
2023-08-28T06:58:57.896Z,1.40
2023-08-28T07:01:27.136Z,1.40
2023-08-28T07:04:01.895Z,1.45
2023-08-28T07:06:29.748Z,1.52
2023-08-28T07:08:57.656Z,1.30
2023-08-28T07:11:32.808Z,1.30
2023-08-28T07:14:01.140Z,1.10
2023-08-28T07:16:30.524Z,1.42
2023-08-28T07:19:04.906Z,1.23
2023-08-28T07:21:32.791Z,1.20
2023-08-28T07:24:00.631Z,1.05
2023-08-28T07:26:34.842Z,0.95
2023-08-28T07:29:03.529Z,1.10
2023-08-28T07:31:33.700Z,1.13
2023-08-28T07:34:07.822Z,0.95
2023-08-28T07:36:38.410Z,1.40
2023-08-28T07:39:06.553Z,1.00
2023-08-28T07:41:46.807Z,1.15
2023-08-28T07:44:14.983Z,1.10
2023-08-28T07:46:44.122Z,0.80
2023-08-28T07:49:18.815Z,0.95
2023-08-28T07:51:46.729Z,0.90
2023-08-28T07:54:14.540Z,0.95
2023-08-28T07:56:48.841Z,1.10
2023-08-28T07:59:22.865Z,0.80
2023-08-28T08:01:59.020Z,0.80
2023-08-28T08:04:27.589Z,0.80
2023-08-28T08:06:56.222Z,0.90
2023-08-28T08:09:30.855Z,0.70
2023-08-28T08:11:58.665Z,0.70
2023-08-28T08:14:26.532Z,0.80
2023-08-28T08:17:08.946Z,0.85
2023-08-28T08:19:36.758Z,0.80
2023-08-28T08:22:05.636Z,0.90
2023-08-28T08:24:39.892Z,1.08
2023-08-28T08:27:07.682Z,0.80
2023-08-28T08:29:35.506Z,0.90
2023-08-28T08:32:12.110Z,0.63
2023-08-28T08:34:39.944Z,0.60
2023-08-28T08:37:07.738Z,0.60
2023-08-28T08:39:41.963Z,0.70
2023-08-28T08:42:10.005Z,0.73
2023-08-28T08:44:39.576Z,0.68
2023-08-28T08:47:15.877Z,0.68
2023-08-28T08:49:44.673Z,0.70
2023-08-28T08:52:23.943Z,0.80
2023-08-28T08:54:55.940Z,0.93
2023-08-28T08:57:45.901Z,0.90
2023-08-28T09:00:19.232Z,0.70
2023-08-28T09:02:57.205Z,0.82
2023-08-28T09:05:26.046Z,1.00
2023-08-28T09:07:55.821Z,1.02
2023-08-28T09:10:29.979Z,0.90
2023-08-28T09:12:57.861Z,0.80
2023-08-28T09:15:26.805Z,0.90
2023-08-28T09:18:03.079Z,1.08
2023-08-28T09:20:31.020Z,0.80
2023-08-28T09:22:59.329Z,0.80
2023-08-28T09:25:34.012Z,1.00
2023-08-28T09:28:02.088Z,1.38
2023-08-28T09:30:32.666Z,1.00
2023-08-28T09:33:10.889Z,1.00
2023-08-28T09:35:40.404Z,1.45
2023-08-28T09:38:09.095Z,1.40
2023-08-28T09:40:44.873Z,1.00
2023-08-28T09:43:14.176Z,1.25
2023-08-28T09:45:42.953Z,1.20
2023-08-28T09:48:20.220Z,1.08
2023-08-28T09:50:53.864Z,0.90
2023-08-28T09:53:27.863Z,0.93
2023-08-28T09:56:02.052Z,0.98
2023-08-28T09:58:44.978Z,1.10
2023-08-28T10:01:12.954Z,0.93
2023-08-28T10:03:42.302Z,0.77
2023-08-28T10:06:16.987Z,1.10
2023-08-28T10:08:45.473Z,0.88
2023-08-28T10:11:14.512Z,0.90
2023-08-28T10:13:49.868Z,0.98
2023-08-28T10:16:23.301Z,1.08
2023-08-28T10:19:04.877Z,0.70
2023-08-28T10:21:33.297Z,0.88
2023-08-28T10:24:02.077Z,0.90
2023-08-28T10:26:37.968Z,0.63
2023-08-28T10:29:07.383Z,0.90
2023-08-28T10:31:37.331Z,0.88
2023-08-28T10:34:14.119Z,0.93
2023-08-28T10:37:00.781Z,1.10
2023-08-28T10:39:37.960Z,0.70
2023-08-28T10:42:06.961Z,0.88
2023-08-28T10:44:35.756Z,1.20
2023-08-28T10:47:09.962Z,0.90
2023-08-28T10:49:40.544Z,0.90
2023-08-28T10:52:08.966Z,0.80
2023-08-28T10:54:45.898Z,0.85
2023-08-28T10:57:29.999Z,1.30
2023-08-28T11:00:22.899Z,1.00
2023-08-28T11:03:09.069Z,1.13
2023-08-28T11:05:47.897Z,0.90
2023-08-28T11:08:16.539Z,0.70
2023-08-28T11:10:55.891Z,0.80
2023-08-28T11:13:25.964Z,1.00
2023-08-28T11:16:11.080Z,0.90
2023-08-28T11:18:40.766Z,1.00
2023-08-28T11:21:09.959Z,0.70
2023-08-28T11:23:47.925Z,0.80
2023-08-28T11:26:29.107Z,0.98
2023-08-28T11:29:04.026Z,0.68
2023-08-28T11:31:34.894Z,0.60
2023-08-28T11:34:11.859Z,1.08
2023-08-28T11:36:43.766Z,0.90
2023-08-28T11:39:28.100Z,0.90
2023-08-28T11:41:55.975Z,0.80
2023-08-28T11:44:24.405Z,0.70
2023-08-28T11:46:59.906Z,0.80
2023-08-28T11:49:28.926Z,1.05
2023-08-28T11:51:58.288Z,0.93
2023-08-28T11:54:34.982Z,1.27
2023-08-28T11:57:08.929Z,0.80
2023-08-28T11:59:49.866Z,0.90
2023-08-28T12:02:18.233Z,1.10
2023-08-28T12:04:49.759Z,0.90
2023-08-28T12:07:26.898Z,1.20
2023-08-28T12:09:56.340Z,1.08
2023-08-28T12:12:25.010Z,1.30
2023-08-28T12:14:58.997Z,0.95
2023-08-28T12:17:28.252Z,0.73
2023-08-28T12:19:56.231Z,0.90
2023-08-28T12:22:33.003Z,1.20
2023-08-28T12:25:01.008Z,0.70
2023-08-28T12:27:29.635Z,1.23
2023-08-28T12:30:04.173Z,0.82
2023-08-28T12:32:32.110Z,0.93
2023-08-28T12:35:18.004Z,0.73
2023-08-28T12:37:52.599Z,1.00
2023-08-28T12:40:27.105Z,0.80
2023-08-28T12:43:00.189Z,0.95
2023-08-28T12:45:34.895Z,0.73
2023-08-28T12:48:03.443Z,0.63
2023-08-28T12:50:31.372Z,0.93
2023-08-28T12:53:07.064Z,0.80
2023-08-28T12:55:34.978Z,0.98
2023-08-28T12:58:16.055Z,0.73
2023-08-28T13:00:43.907Z,1.00
2023-08-28T13:03:12.158Z,0.70
2023-08-28T13:05:46.937Z,0.95
2023-08-28T13:08:16.144Z,0.65
2023-08-28T13:10:44.232Z,0.85
2023-08-28T13:13:18.914Z,0.82
2023-08-28T13:15:48.516Z,0.80
2023-08-28T13:18:16.437Z,0.98
2023-08-28T13:20:51.055Z,0.88
2023-08-28T13:23:20.200Z,0.85
2023-08-28T13:25:48.053Z,0.75
2023-08-28T13:28:24.142Z,1.30
2023-08-28T13:30:52.088Z,0.90
2023-08-28T13:33:22.097Z,0.85
2023-08-28T13:35:56.939Z,0.82
2023-08-28T13:38:26.097Z,0.70
2023-08-28T13:40:53.902Z,1.00
2023-08-28T13:43:27.985Z,0.70
2023-08-28T13:45:55.812Z,0.75
2023-08-28T13:48:24.631Z,0.88
2023-08-28T13:50:59.047Z,0.70
2023-08-28T13:53:28.274Z,0.65
2023-08-28T13:55:57.352Z,0.80
2023-08-28T13:58:32.863Z,0.70
2023-08-28T14:01:04.201Z,0.77
2023-08-28T14:03:40.087Z,1.08
2023-08-28T14:06:08.227Z,0.60
2023-08-28T14:08:37.413Z,0.70
2023-08-28T14:11:15.089Z,0.70
2023-08-28T14:13:42.910Z,0.82
2023-08-28T14:16:10.785Z,0.70
2023-08-28T14:18:44.944Z,1.02
2023-08-28T14:21:13.062Z,0.60
2023-08-28T14:23:42.234Z,0.70
2023-08-28T14:26:17.069Z,0.63
2023-08-28T14:28:44.865Z,0.80
2023-08-28T14:31:13.707Z,1.02
2023-08-28T14:33:47.973Z,0.82
2023-08-28T14:36:15.844Z,0.90
2023-08-28T14:38:45.061Z,0.80
2023-08-28T14:41:20.059Z,0.82
2023-08-28T14:43:47.897Z,1.02
2023-08-28T14:46:15.868Z,0.90
2023-08-28T14:48:52.018Z,1.10
2023-08-28T14:51:19.835Z,1.00
2023-08-28T14:53:49.014Z,0.80
2023-08-28T14:56:23.104Z,1.00
2023-08-28T14:58:57.590Z,0.70
2023-08-28T15:01:32.062Z,0.77
2023-08-28T15:03:59.819Z,0.80
2023-08-28T15:06:27.615Z,0.80
2023-08-28T15:09:04.077Z,0.90
2023-08-28T15:11:31.933Z,0.88
2023-08-28T15:13:59.760Z,0.70
2023-08-28T15:16:34.056Z,0.73
2023-08-28T15:19:01.876Z,1.05
2023-08-28T15:21:29.700Z,0.82
2023-08-28T15:24:04.973Z,0.90
2023-08-28T15:26:33.369Z,0.77
2023-08-28T15:29:01.250Z,1.00
2023-08-28T15:31:36.135Z,0.90
2023-08-28T15:34:04.360Z,1.10
2023-08-28T15:36:32.194Z,1.05
2023-08-28T15:39:07.965Z,1.20
2023-08-28T15:41:35.906Z,1.30
2023-08-28T15:44:04.520Z,1.10
2023-08-28T15:46:39.106Z,1.25
2023-08-28T15:49:07.022Z,1.40
2023-08-28T15:51:34.826Z,1.38
2023-08-28T15:54:12.198Z,1.42
2023-08-28T15:56:47.054Z,1.50
2023-08-28T15:59:27.980Z,1.58
2023-08-28T16:01:56.531Z,1.55
2023-08-28T16:04:25.287Z,1.58
2023-08-28T16:07:00.116Z,1.40
2023-08-28T16:09:29.384Z,1.20
2023-08-28T16:11:59.090Z,1.15
2023-08-28T16:14:34.978Z,1.20
2023-08-28T16:17:04.163Z,2.15
2023-08-28T16:19:32.176Z,1.08
2023-08-28T16:22:07.156Z,0.70
2023-08-28T16:24:36.268Z,0.85
2023-08-28T16:27:04.343Z,0.70
2023-08-28T16:29:39.092Z,1.00
2023-08-28T16:32:07.634Z,0.70
2023-08-28T16:34:35.492Z,0.95
2023-08-28T16:37:10.015Z,0.82
2023-08-28T16:39:39.844Z,0.70
2023-08-28T16:42:07.831Z,0.70
2023-08-28T16:44:41.988Z,0.57
2023-08-28T16:47:09.787Z,0.60
2023-08-28T16:49:37.904Z,0.70
2023-08-28T16:52:13.110Z,0.70
2023-08-28T16:54:42.432Z,0.70
2023-08-28T16:57:24.285Z,0.90
2023-08-28T16:59:59.734Z,0.80
2023-08-28T17:02:34.205Z,0.70
2023-08-28T17:05:02.785Z,0.82
2023-08-28T17:07:30.613Z,0.80
2023-08-28T17:10:11.135Z,0.90
2023-08-28T17:12:38.951Z,0.80
2023-08-28T17:15:07.875Z,0.90
2023-08-28T17:17:42.072Z,0.95
2023-08-28T17:20:10.582Z,1.00
2023-08-28T17:22:38.546Z,0.75
2023-08-28T17:25:15.154Z,1.17
2023-08-28T17:27:43.600Z,0.90
2023-08-28T17:30:12.203Z,1.00
2023-08-28T17:32:47.179Z,0.95
2023-08-28T17:35:15.238Z,0.68
2023-08-28T17:37:43.319Z,0.88
2023-08-28T17:40:20.058Z,0.70
2023-08-28T17:42:47.878Z,0.90
2023-08-28T17:45:15.783Z,0.80
2023-08-28T17:47:50.086Z,0.85
2023-08-28T17:50:19.048Z,0.70
2023-08-28T17:52:46.879Z,0.80
2023-08-28T17:55:23.304Z,0.82
2023-08-28T17:57:58.081Z,1.10
2023-08-28T18:00:32.266Z,0.90
2023-08-28T18:03:18.491Z,1.10
2023-08-28T18:05:58.219Z,1.45
2023-08-28T18:08:27.940Z,1.13
2023-08-28T18:10:57.136Z,1.02
2023-08-28T18:13:32.075Z,1.40
2023-08-28T18:16:00.000Z,1.20
2023-08-28T18:18:27.896Z,1.20
2023-08-28T18:21:10.031Z,1.40
2023-08-28T18:23:37.920Z,1.33
2023-08-28T18:26:08.326Z,1.10
2023-08-28T18:28:43.042Z,1.25
2023-08-28T18:31:11.019Z,1.20
2023-08-28T18:33:38.829Z,1.20
2023-08-28T18:36:14.375Z,1.17
2023-08-28T18:38:42.434Z,1.08
2023-08-28T18:41:12.022Z,1.30
2023-08-28T18:43:46.127Z,1.20
2023-08-28T18:46:13.931Z,1.05
2023-08-28T18:48:41.843Z,1.52
2023-08-28T18:51:18.460Z,1.58
2023-08-28T18:53:47.469Z,1.15
2023-08-28T18:56:30.014Z,1.52
2023-08-28T18:59:11.063Z,1.60
2023-08-28T19:01:45.351Z,1.65
2023-08-28T19:04:13.212Z,1.30
2023-08-28T19:06:41.933Z,1.55
2023-08-28T19:09:16.198Z,1.60
2023-08-28T19:11:45.358Z,1.33
2023-08-28T19:14:13.203Z,1.60
2023-08-28T19:16:48.123Z,1.60
2023-08-28T19:19:16.748Z,1.63
2023-08-28T19:21:44.558Z,1.60
2023-08-28T19:24:19.324Z,1.50
2023-08-28T19:26:48.593Z,1.70
2023-08-28T19:29:16.540Z,1.58
2023-08-28T19:31:52.046Z,1.88
2023-08-28T19:34:19.853Z,1.58
2023-08-28T19:36:47.759Z,1.70
2023-08-28T19:39:24.194Z,1.75
2023-08-28T19:41:53.302Z,1.75
2023-08-28T19:44:21.256Z,2.08
2023-08-28T19:46:56.125Z,2.25
2023-08-28T19:49:24.070Z,2.20
2023-08-28T19:51:52.220Z,1.95
2023-08-28T19:54:28.214Z,1.60
2023-08-28T19:57:16.997Z,1.92
2023-08-28T19:59:52.248Z,1.88
2023-08-28T20:02:20.459Z,1.92
2023-08-28T20:04:48.694Z,1.67
2023-08-28T20:07:24.163Z,2.13
2023-08-28T20:09:52.491Z,2.13
2023-08-28T20:12:21.640Z,2.00
2023-08-28T20:14:57.040Z,2.00
2023-08-28T20:17:25.504Z,2.40
2023-08-28T20:19:53.364Z,1.80
2023-08-28T20:22:28.128Z,2.20
2023-08-28T20:24:55.964Z,2.22
2023-08-28T20:27:25.117Z,1.90
2023-08-28T20:29:59.187Z,2.20
2023-08-28T20:32:27.032Z,2.47
2023-08-28T20:34:54.882Z,1.98
2023-08-28T20:37:29.077Z,1.98
2023-08-28T20:39:57.092Z,2.30
2023-08-28T20:42:26.473Z,2.08
2023-08-28T20:45:01.193Z,2.53
2023-08-28T20:47:36.825Z,2.30
2023-08-28T20:50:12.097Z,2.38
2023-08-28T20:52:40.207Z,2.22
2023-08-28T20:55:09.132Z,2.47
2023-08-28T20:57:45.167Z,2.45
2023-08-28T21:00:13.897Z,2.20
2023-08-28T21:02:41.745Z,2.50
2023-08-28T21:05:17.100Z,2.72
2023-08-28T21:07:45.202Z,2.53
2023-08-28T21:10:13.053Z,3.13
2023-08-28T21:12:49.098Z,2.72
2023-08-28T21:15:16.893Z,3.10
2023-08-28T21:17:43.763Z,3.35
2023-08-28T21:20:19.076Z,3.22
2023-08-28T21:22:46.915Z,3.10
2023-08-28T21:25:14.825Z,3.22
2023-08-28T21:27:51.168Z,3.03
2023-08-28T21:30:19.021Z,3.55
2023-08-28T21:32:48.453Z,2.92
2023-08-28T21:35:23.218Z,3.10
2023-08-28T21:37:51.028Z,3.30
2023-08-28T21:40:19.029Z,2.90
2023-08-28T21:42:55.195Z,2.67
2023-08-28T21:45:23.043Z,2.58
2023-08-28T21:47:50.836Z,2.70
2023-08-28T21:50:25.072Z,2.53
2023-08-28T21:52:52.902Z,2.40
2023-08-28T21:55:20.862Z,2.40
2023-08-28T21:57:56.101Z,2.50
2023-08-28T22:00:30.801Z,2.70
2023-08-28T22:03:05.269Z,2.20
2023-08-28T22:05:33.288Z,2.80
2023-08-28T22:08:01.133Z,2.45
2023-08-28T22:10:36.183Z,2.38
2023-08-28T22:13:05.686Z,2.85
2023-08-28T22:15:34.011Z,2.70
2023-08-28T22:18:09.481Z,2.90
2023-08-28T22:20:41.637Z,2.55
2023-08-28T22:23:17.261Z,3.25
2023-08-28T22:25:45.769Z,3.25
2023-08-28T22:28:15.396Z,3.70
2023-08-28T22:30:50.227Z,3.05
2023-08-28T22:33:18.128Z,3.05
2023-08-28T22:35:45.918Z,3.30
2023-08-28T22:38:20.110Z,2.80
2023-08-28T22:40:48.100Z,3.00
2023-08-28T22:43:17.330Z,2.78
2023-08-28T22:45:52.199Z,2.95
2023-08-28T22:48:20.039Z,2.67
2023-08-28T22:50:49.885Z,3.28
2023-08-28T22:53:24.206Z,2.60
2023-08-28T22:55:54.593Z,2.42
2023-08-28T22:58:37.102Z,2.65
2023-08-28T23:01:05.418Z,2.10
2023-08-28T23:03:33.300Z,2.50
2023-08-28T23:06:08.337Z,2.30
2023-08-28T23:08:36.201Z,2.50
2023-08-28T23:11:04.214Z,2.45
2023-08-28T23:13:40.252Z,2.30
2023-08-28T23:16:08.166Z,2.30
2023-08-28T23:18:36.301Z,2.20
2023-08-28T23:21:11.337Z,2.10
2023-08-28T23:23:40.063Z,2.22
2023-08-28T23:26:07.891Z,2.40
2023-08-28T23:28:44.079Z,2.33
2023-08-28T23:31:11.867Z,2.15
2023-08-28T23:33:39.830Z,2.30
2023-08-28T23:36:16.084Z,2.35
2023-08-28T23:38:43.928Z,2.22
2023-08-28T23:41:11.739Z,2.28
2023-08-28T23:43:47.187Z,2.42
2023-08-28T23:46:15.059Z,2.03
2023-08-28T23:48:43.117Z,1.92
2023-08-28T23:51:32.091Z,2.13
2023-08-28T23:54:07.779Z,1.90
2023-08-28T23:56:42.179Z,2.13
2023-08-28T23:59:31.083Z,2.17
